Time;durP1;ratioP1;P1;durP2;ratioP2;P2;SDS_P1;SDS_P2;PMS_P1;PMS_P2;Temp;Humidity;BMP_temperature;BMP_pressure;BME280_temperature;BME280_humidity;BME280_pressure;Samples;Min_cycle;Max_cycle;Signal;HPM_P1;HPM_P2
2023/05/06 00:00:32;;;;;;;;;;;;;;;15.29;57.93;100031.94;4424390;32;33272;-81
2023/05/06 00:03:00;;;;;;;;;;;;;;;15.34;57.35;100031.66;4437353;32;33908;-80
2023/05/06 00:05:28;;;;;;;;;;;;;;;15.34;57.30;100039.66;4424623;32;32723;-80
2023/05/06 00:07:55;;;;;;;;;;;;;;;15.35;57.63;100038.69;4437298;32;33004;-81
2023/05/06 00:10:23;;;;;;;;;;;;;;;15.29;57.78;100041.72;4436900;32;34948;-80
2023/05/06 00:12:50;;;;;;;;;;;;;;;15.34;57.45;100039.66;4424691;32;33846;-81
2023/05/06 00:15:18;;;;;;;;;;;;;;;15.19;57.75;100037.88;4424290;32;34185;-81
2023/05/06 00:17:47;;;;;;;;;;;;;;;15.30;57.11;100038.13;4424788;32;32571;-82
2023/05/06 00:20:14;;;;;;;;;;;;;;;15.15;57.85;100041.69;4424086;32;34087;-82
2023/05/06 00:22:42;;;;;;;;;;;;;;;15.16;57.68;100040.72;4437465;32;34094;-82
2023/05/06 00:25:10;;;;;;;;;;;;;;;15.12;57.68;100034.72;4424565;32;34107;-82
2023/05/06 00:27:38;;;;;;;;;;;;;;;15.06;58.03;100038.59;4437173;32;33919;-81
2023/05/06 00:30:08;;;;;;;;;;;;;;;14.97;58.34;100041.81;4424806;32;32855;-81
2023/05/06 00:32:35;;;;;;;;;;;;;;;14.91;58.60;100050.16;4424493;32;33885;-81
2023/05/06 00:35:04;;;;;;;;;;;;;;;14.97;58.50;100044.47;4424732;32;33558;-81
2023/05/06 00:37:31;;;;;;;;;;;;;;;14.89;58.64;100045.84;4436603;32;33118;-81
2023/05/06 00:39:59;;;;;;;;;;;;;;;14.92;58.33;100045.69;4437313;32;34148;-80
2023/05/06 00:42:27;;;;;;;;;;;;;;;14.87;58.43;100045.94;4424335;32;33234;-81
2023/05/06 00:44:54;;;;;;;;;;;;;;;14.69;59.25;100047.00;4437282;32;33854;-81
2023/05/06 00:47:22;;;;;;;;;;;;;;;14.90;58.43;100043.09;4432100;32;32282;-81
2023/05/06 00:49:50;;;;;;;;;;;;;;;14.79;58.69;100038.41;4436927;32;33857;-81
2023/05/06 00:52:18;;;;;;;;;;;;;;;14.73;58.91;100043.22;4437163;32;33861;-81
2023/05/06 00:54:46;;;;;;;;;;;;;;;14.62;59.05;100041.13;4424172;32;34723;-81
2023/05/06 00:57:14;;;;;;;;;;;;;;;14.84;58.64;100035.47;4436252;32;33934;-81
2023/05/06 00:59:41;;;;;;;;;;;;;;;14.82;58.69;100034.72;4424237;32;33440;-81
2023/05/06 01:02:09;;;;;;;;;;;;;;;14.80;58.52;100031.28;4436869;32;34359;-81
2023/05/06 01:04:36;;;;;;;;;;;;;;;14.89;58.42;100030.75;4436968;32;33732;-80
2023/05/06 01:07:23;;;;;;;;;;;;;;;14.80;58.72;100025.94;4424309;32;32218;-81
2023/05/06 01:09:59;;;;;;;;;;;;;;;14.64;59.13;100028.66;4436435;32;34240;-81
2023/05/06 01:12:31;;;;;;;;;;;;;;;14.60;59.07;100033.28;4423965;32;33121;-81
2023/05/06 01:15:11;;;;;;;;;;;;;;;14.70;58.86;100038.06;4411485;32;32942;-81
2023/05/06 01:17:45;;;;;;;;;;;;;;;14.71;58.64;100026.47;4423912;32;33211;-80
2023/05/06 01:20:14;;;;;;;;;;;;;;;14.62;59.06;100029.66;4438293;32;34960;-80
2023/05/06 01:22:41;;;;;;;;;;;;;;;14.75;58.32;100023.56;4436829;32;33940;-81
2023/05/06 01:25:20;;;;;;;;;;;;;;;14.63;58.70;100018.97;4424169;32;33729;-81
2023/05/06 01:27:48;;;;;;;;;;;;;;;14.63;58.90;100023.44;4423106;32;33206;-81
2023/05/06 01:30:16;;;;;;;;;;;;;;;14.54;58.98;100027.44;4436391;32;34251;-81
2023/05/06 01:32:49;;;;;;;;;;;;;;;14.51;59.37;100025.81;4424439;32;35092;-81
2023/05/06 01:35:36;;;;;;;;;;;;;;;14.62;58.98;100016.37;4436682;32;34184;-81
2023/05/06 01:38:04;;;;;;;;;;;;;;;14.72;58.20;100012.28;4436576;32;33778;-81
2023/05/06 01:40:32;;;;;;;;;;;;;;;14.63;58.40;100007.47;4437950;32;33647;-81
2023/05/06 01:43:01;;;;;;;;;;;;;;;14.49;59.05;100017.09;4423817;32;34144;-81
2023/05/06 01:45:30;;;;;;;;;;;;;;;14.44;59.41;100024.44;4436380;32;33758;-80
2023/05/06 01:48:00;;;;;;;;;;;;;;;14.48;59.14;100015.38;4436655;32;33829;-81
2023/05/06 01:50:28;;;;;;;;;;;;;;;14.48;59.33;100014.50;4423954;32;33704;-81
2023/05/06 01:53:02;;;;;;;;;;;;;;;14.44;59.28;100008.47;4411194;32;33512;-81
2023/05/06 01:55:31;;;;;;;;;;;;;;;14.41;59.21;100016.63;4423470;32;33689;-81
2023/05/06 01:57:59;;;;;;;;;;;;;;;14.42;59.38;100014.81;4435660;32;32935;-81
2023/05/06 02:00:27;;;;;;;;;;;;;;;14.39;59.59;100017.66;4423412;32;34875;-82
2023/05/06 02:02:55;;;;;;;;;;;;;;;14.40;59.41;100022.88;4436235;32;33644;-82
2023/05/06 02:05:23;;;;;;;;;;;;;;;14.31;59.54;100018.06;4423922;32;34668;-82
2023/05/06 02:07:51;;;;;;;;;;;;;;;14.22;60.08;100016.78;4437607;32;33402;-82
2023/05/06 02:10:20;;;;;;;;;;;;;;;14.33;60.00;100017.03;4436223;32;34031;-82
2023/05/06 02:12:48;;;;;;;;;;;;;;;14.41;59.70;100024.59;4436430;32;34204;-81
2023/05/06 02:15:16;;;;;;;;;;;;;;;14.33;59.75;100021.50;4410968;32;33360;-81
2023/05/06 02:17:45;;;;;;;;;;;;;;;14.38;59.49;100023.91;4422341;32;34771;-82
2023/05/06 02:20:12;;;;;;;;;;;;;;;14.50;58.81;100020.59;4436121;32;33428;-82
2023/05/06 02:22:39;;;;;;;;;;;;;;;14.37;59.07;100019.53;4435169;32;34231;-82
2023/05/06 02:25:09;;;;;;;;;;;;;;;14.22;59.71;100019.44;4411608;32;33862;-81
2023/05/06 02:27:37;;;;;;;;;;;;;;;14.28;59.30;100023.53;4423253;32;32977;-81
2023/05/06 02:30:05;;;;;;;;;;;;;;;14.31;59.25;100026.03;4435654;32;33984;-81
2023/05/06 02:32:34;;;;;;;;;;;;;;;14.37;59.12;100024.84;4423744;32;33466;-82
2023/05/06 02:35:02;;;;;;;;;;;;;;;14.33;59.23;100032.12;4423257;32;34475;-81
2023/05/06 02:37:30;;;;;;;;;;;;;;;14.37;59.24;100028.34;4435182;32;33286;-81
2023/05/06 02:39:59;;;;;;;;;;;;;;;14.17;59.39;100023.28;4410769;32;33187;-81
2023/05/06 02:42:27;;;;;;;;;;;;;;;14.21;59.28;100024.84;4436026;32;34744;-81
2023/05/06 02:44:54;;;;;;;;;;;;;;;14.03;59.85;100022.25;4422777;32;33269;-81
2023/05/06 02:47:23;;;;;;;;;;;;;;;14.19;58.90;100019.59;4422414;32;32504;-81
2023/05/06 02:49:50;;;;;;;;;;;;;;;14.14;58.95;100026.97;4435636;32;33912;-81
2023/05/06 02:52:18;;;;;;;;;;;;;;;13.84;59.98;100029.50;4422845;32;33801;-81
2023/05/06 02:54:45;;;;;;;;;;;;;;;13.77;60.17;100033.44;4423272;32;33477;-82
2023/05/06 02:57:14;;;;;;;;;;;;;;;13.86;59.98;100026.75;4422460;32;33398;-82
2023/05/06 02:59:43;;;;;;;;;;;;;;;13.93;59.60;100030.78;4423390;32;33972;-81
2023/05/06 03:02:14;;;;;;;;;;;;;;;13.86;59.63;100035.56;4408900;32;33214;-81
2023/05/06 03:04:42;;;;;;;;;;;;;;;13.83;59.61;100033.94;4435123;32;34083;-81
2023/05/06 03:07:10;;;;;;;;;;;;;;;13.85;59.63;100031.19;4435578;32;34193;-82
2023/05/06 03:09:39;;;;;;;;;;;;;;;13.83;59.36;100027.78;4437650;32;33759;-82
2023/05/06 03:12:07;;;;;;;;;;;;;;;13.72;59.72;100030.13;4412126;32;34105;-82
2023/05/06 03:14:35;;;;;;;;;;;;;;;13.75;59.49;100032.63;4425056;32;34400;-82
2023/05/06 03:17:04;;;;;;;;;;;;;;;13.62;60.02;100034.22;4412997;32;32269;-81
2023/05/06 03:19:33;;;;;;;;;;;;;;;13.74;59.77;100031.78;4424946;32;34329;-81
2023/05/06 03:22:01;;;;;;;;;;;;;;;13.71;59.41;100028.41;4437533;32;34245;-81
2023/05/06 03:24:29;;;;;;;;;;;;;;;13.80;59.51;100033.25;4438624;32;34680;-82
2023/05/06 03:26:58;;;;;;;;;;;;;;;13.75;59.41;100027.31;4425290;32;32086;-81
2023/05/06 03:29:27;;;;;;;;;;;;;;;13.69;59.61;100025.84;4412274;32;32896;-81
2023/05/06 03:32:00;;;;;;;;;;;;;;;13.71;59.63;100023.97;4437607;32;34011;-81
2023/05/06 03:34:29;;;;;;;;;;;;;;;13.76;59.19;100018.41;4425018;32;34427;-81
2023/05/06 03:36:59;;;;;;;;;;;;;;;13.76;59.16;100018.41;4437746;32;33710;-80
2023/05/06 03:39:27;;;;;;;;;;;;;;;13.59;59.80;100016.66;4437350;32;32863;-80
2023/05/06 03:41:56;;;;;;;;;;;;;;;13.34;60.92;100019.75;4412918;32;34257;-81
2023/05/06 03:44:25;;;;;;;;;;;;;;;13.55;60.12;100010.66;4424928;32;34796;-81
2023/05/06 03:46:53;;;;;;;;;;;;;;;13.52;60.55;100023.22;4424682;32;32699;-81
2023/05/06 03:49:21;;;;;;;;;;;;;;;13.64;59.96;100024.38;4412126;32;34408;-81
2023/05/06 03:51:49;;;;;;;;;;;;;;;13.53;60.84;100023.16;4424765;32;34282;-81
2023/05/06 03:54:17;;;;;;;;;;;;;;;13.60;60.34;100025.50;4437507;32;34283;-81
2023/05/06 03:56:50;;;;;;;;;;;;;;;13.78;59.73;100032.47;4424731;32;32073;-81
2023/05/06 03:59:20;;;;;;;;;;;;;;;13.71;60.07;100029.28;4437401;32;34235;-81
2023/05/06 04:01:48;;;;;;;;;;;;;;;13.66;60.29;100035.75;4424300;32;33885;-82
2023/05/06 04:04:17;;;;;;;;;;;;;;;13.69;60.27;100035.62;4425086;32;33627;-82
2023/05/06 04:06:44;;;;;;;;;;;;;;;13.77;59.84;100038.72;4437154;32;33258;-81
2023/05/06 04:09:12;;;;;;;;;;;;;;;13.66;60.72;100043.72;4424427;32;32249;-82
2023/05/06 04:11:42;;;;;;;;;;;;;;;13.82;60.58;100042.00;4425218;32;33374;-81
2023/05/06 04:14:10;;;;;;;;;;;;;;;13.82;60.78;100032.22;4437788;32;33317;-81
2023/05/06 04:16:39;;;;;;;;;;;;;;;13.96;60.49;100034.16;4438669;32;33417;-81
2023/05/06 04:19:08;;;;;;;;;;;;;;;13.93;60.70;100034.31;4437169;32;33880;-81
2023/05/06 04:21:43;;;;;;;;;;;;;;;13.91;60.97;100041.50;4435886;32;34958;-81
2023/05/06 04:24:16;;;;;;;;;;;;;;;14.07;60.57;100036.22;4424314;32;33462;-81
2023/05/06 04:26:45;;;;;;;;;;;;;;;14.25;59.89;100039.69;4437316;32;33402;-81
2023/05/06 04:29:15;;;;;;;;;;;;;;;14.50;58.87;100040.06;4437129;32;32506;-81
2023/05/06 04:31:43;;;;;;;;;;;;;;;14.27;59.95;100043.09;4437221;32;34194;-80
2023/05/06 04:34:12;;;;;;;;;;;;;;;14.33;60.16;100038.28;4436350;32;33886;-81
2023/05/06 04:36:42;;;;;;;;;;;;;;;13.98;62.02;100055.28;4424543;32;33137;-81
2023/05/06 04:39:11;;;;;;;;;;;;;;;14.41;60.23;100040.53;4438289;32;34445;-80
2023/05/06 04:41:39;;;;;;;;;;;;;;;14.57;59.58;100041.44;4423277;32;34679;-81
2023/05/06 04:44:08;;;;;;;;;;;;;;;14.35;60.47;100035.56;4424563;32;33787;-81
2023/05/06 04:46:38;;;;;;;;;;;;;;;14.46;60.77;100037.63;4436819;32;32462;-81
2023/05/06 04:49:10;;;;;;;;;;;;;;;14.48;60.94;100047.25;4411505;32;33534;-80
2023/05/06 04:51:39;;;;;;;;;;;;;;;14.60;60.78;100046.56;4436770;32;34465;-81
2023/05/06 04:54:09;;;;;;;;;;;;;;;14.81;60.08;100043.63;4424508;32;33382;-81
2023/05/06 04:56:38;;;;;;;;;;;;;;;15.00;59.37;100052.28;4423989;32;32901;-81
2023/05/06 04:59:07;;;;;;;;;;;;;;;14.98;59.43;100056.81;4436888;32;33853;-81
2023/05/06 05:01:35;;;;;;;;;;;;;;;15.17;59.10;100063.72;4436701;32;34321;-81
2023/05/06 05:04:04;;;;;;;;;;;;;;;15.22;59.14;100064.31;4436595;32;33850;-81
2023/05/06 05:06:32;;;;;;;;;;;;;;;15.07;59.55;100068.72;4438313;32;34158;-81
2023/05/06 05:09:00;;;;;;;;;;;;;;;14.89;60.53;100060.00;4425010;32;33413;-81
2023/05/06 05:11:28;;;;;;;;;;;;;;;15.18;59.41;100058.28;4436685;32;33377;-81
2023/05/06 05:13:57;;;;;;;;;;;;;;;14.75;61.09;100065.25;4437852;32;34119;-81
2023/05/06 05:16:35;;;;;;;;;;;;;;;14.88;61.17;100071.56;4425334;32;33346;-81
2023/05/06 05:19:05;;;;;;;;;;;;;;;14.97;61.48;100064.88;4438031;32;34982;-80
2023/05/06 05:21:42;;;;;;;;;;;;;;;15.02;61.46;100063.66;4424607;32;33387;-81
2023/05/06 05:24:12;;;;;;;;;;;;;;;15.00;61.25;100060.25;4436979;32;33874;-81
2023/05/06 05:26:41;;;;;;;;;;;;;;;15.16;60.99;100062.00;4436959;32;33964;-81
2023/05/06 05:29:15;;;;;;;;;;;;;;;15.41;60.42;100059.59;4436779;32;34949;-81
2023/05/06 05:31:48;;;;;;;;;;;;;;;15.44;60.49;100058.59;4435581;32;34255;-82
2023/05/06 05:34:18;;;;;;;;;;;;;;;15.64;60.12;100049.44;4424413;32;33253;-81
2023/05/06 05:36:48;;;;;;;;;;;;;;;15.70;59.98;100059.69;4423132;32;33554;-81
2023/05/06 05:39:18;;;;;;;;;;;;;;;16.07;59.01;100052.97;4424180;32;33995;-81
2023/05/06 05:41:47;;;;;;;;;;;;;;;16.26;58.28;100052.66;4435046;32;34294;-81
2023/05/06 05:44:15;;;;;;;;;;;;;;;16.34;58.57;100059.22;4423902;32;34876;-81
2023/05/06 05:46:49;;;;;;;;;;;;;;;16.57;58.17;100057.75;4436969;32;33074;-81
2023/05/06 05:49:28;;;;;;;;;;;;;;;16.46;58.79;100052.25;4423641;32;33964;-81
2023/05/06 05:51:57;;;;;;;;;;;;;;;16.80;58.61;100055.44;4422648;32;34358;-82
2023/05/06 05:54:27;;;;;;;;;;;;;;;16.76;58.68;100045.91;4435995;32;33509;-81
2023/05/06 05:56:56;;;;;;;;;;;;;;;17.36;57.83;100040.97;4436464;32;33926;-82
2023/05/06 05:59:27;;;;;;;;;;;;;;;17.76;57.60;100040.09;4423632;32;34190;-82
2023/05/06 06:01:58;;;;;;;;;;;;;;;17.46;56.86;100045.69;4435344;32;34211;-81
2023/05/06 06:04:27;;;;;;;;;;;;;;;17.98;56.32;100036.75;4419760;32;33955;-81
2023/05/06 06:07:00;;;;;;;;;;;;;;;17.68;55.85;100040.59;4434122;32;33590;-81
2023/05/06 06:09:31;;;;;;;;;;;;;;;17.96;55.96;100031.53;4434088;32;34486;-81
2023/05/06 06:12:01;;;;;;;;;;;;;;;18.59;54.09;100037.72;4421286;32;33611;-82
2023/05/06 06:17:16;;;;;;;;;;;;;;;18.75;53.75;100032.94;4432012;32;32828;-81
2023/05/06 06:19:50;;;;;;;;;;;;;;;18.81;53.21;100031.69;4411556;32;33395;-81
2023/05/06 06:22:26;;;;;;;;;;;;;;;18.72;53.77;100035.03;4410877;32;32678;-81
2023/05/06 06:24:56;;;;;;;;;;;;;;;18.85;52.78;100028.66;4437080;32;34179;-81
2023/05/06 06:27:24;;;;;;;;;;;;;;;19.16;51.95;100021.84;4409758;32;32592;-81
2023/05/06 06:29:58;;;;;;;;;;;;;;;19.22;52.27;100033.03;4436174;32;34601;-81
2023/05/06 06:32:30;;;;;;;;;;;;;;;19.31;52.07;100025.16;4410868;32;32943;-82
2023/05/06 06:34:59;;;;;;;;;;;;;;;19.73;51.05;100030.03;4422912;32;33515;-82
2023/05/06 06:37:27;;;;;;;;;;;;;;;19.74;50.95;100029.06;4436538;32;33488;-81
2023/05/06 06:39:56;;;;;;;;;;;;;;;19.63;51.08;100024.56;4423221;32;33400;-82
2023/05/06 06:42:23;;;;;;;;;;;;;;;20.06;49.70;100031.91;4435899;32;34292;-82
2023/05/06 06:45:00;;;;;;;;;;;;;;;20.14;49.90;100030.31;4438084;32;33904;-82
2023/05/06 06:47:38;;;;;;;;;;;;;;;19.57;51.71;100027.69;4436899;32;34137;-82
2023/05/06 06:50:18;;;;;;;;;;;;;;;19.71;50.80;100027.50;4426592;32;33323;-82
2023/05/06 06:52:47;;;;;;;;;;;;;;;19.59;51.43;100029.25;4424324;32;34854;-82
2023/05/06 06:55:17;;;;;;;;;;;;;;;20.08;49.65;100028.13;4437592;32;33613;-82
2023/05/06 06:57:45;;;;;;;;;;;;;;;20.06;50.04;100016.66;4424880;32;32877;-82
2023/05/06 07:00:18;;;;;;;;;;;;;;;19.89;50.43;100030.53;4435992;32;34183;-82
2023/05/06 07:02:56;;;;;;;;;;;;;;;20.15;50.02;100026.66;4435498;32;34286;-82
2023/05/06 07:05:26;;;;;;;;;;;;;;;20.44;49.25;100021.62;4436783;32;34722;-82
2023/05/06 07:07:55;;;;;;;;;;;;;;;20.79;48.33;100019.75;4427722;32;33616;-83
2023/05/06 07:10:23;;;;;;;;;;;;;;;20.95;48.30;100012.97;4436901;32;34207;-82
2023/05/06 07:12:50;;;;;;;;;;;;;;;20.92;48.64;100009.69;4436036;32;34916;-83
2023/05/06 07:15:25;;;;;;;;;;;;;;;20.78;48.19;100008.16;4436973;32;34074;-83
2023/05/06 07:17:56;;;;;;;;;;;;;;;21.37;47.12;100012.22;4424330;32;33859;-82
2023/05/06 07:20:25;;;;;;;;;;;;;;;21.35;47.65;100019.53;4436599;32;34119;-83
2023/05/06 07:22:59;;;;;;;;;;;;;;;21.91;47.55;100019.16;4422292;32;35094;-83
2023/05/06 07:25:36;;;;;;;;;;;;;;;21.84;47.25;100016.19;4434641;32;32886;-83
2023/05/06 07:30:44;;;;;;;;;;;;;;;22.00;46.72;100018.38;4436057;32;33486;-83
2023/05/06 07:33:13;;;;;;;;;;;;;;;22.56;45.30;100020.56;4436667;32;35559;-82
2023/05/06 07:35:49;;;;;;;;;;;;;;;22.55;45.56;100015.31;4423100;32;34727;-82
2023/05/06 07:38:23;;;;;;;;;;;;;;;22.97;44.51;100013.25;4412708;32;33455;-82
2023/05/06 07:40:51;;;;;;;;;;;;;;;22.88;44.69;100006.00;4436384;32;33934;-82
2023/05/06 07:46:01;;;;;;;;;;;;;;;22.44;45.89;100017.13;4437072;32;34600;-82
2023/05/06 07:48:31;;;;;;;;;;;;;;;23.05;45.83;100005.34;4423943;32;33282;-81
2023/05/06 07:51:01;;;;;;;;;;;;;;;23.29;44.52;100012.12;4436975;32;33917;-82
2023/05/06 07:53:39;;;;;;;;;;;;;;;23.18;44.48;100003.22;4436147;32;35797;-82
2023/05/06 07:56:11;;;;;;;;;;;;;;;23.51;44.15;100009.13;4412667;32;32812;-82
2023/05/06 07:58:39;;;;;;;;;;;;;;;23.72;43.02;100008.97;4437865;32;32896;-82
2023/05/06 08:01:11;;;;;;;;;;;;;;;23.99;42.33;100005.47;4435502;32;33677;-82
2023/05/06 08:03:49;;;;;;;;;;;;;;;23.77;42.48;100006.66;4424050;32;34074;-82
2023/05/06 08:06:17;;;;;;;;;;;;;;;23.95;42.67;100009.47;4448336;32;33767;-82
2023/05/06 08:08:53;;;;;;;;;;;;;;;23.72;42.73;100011.66;4423102;32;33682;-82
2023/05/06 08:11:32;;;;;;;;;;;;;;;23.68;42.25;100016.47;4435689;32;33348;-82
2023/05/06 08:14:00;;;;;;;;;;;;;;;24.19;41.09;100017.03;4436364;32;33974;-82
2023/05/06 08:16:27;;;;;;;;;;;;;;;24.36;41.59;100015.38;4435902;32;34114;-82
2023/05/06 08:19:01;;;;;;;;;;;;;;;23.91;42.16;100021.53;4412165;32;33131;-82
2023/05/06 08:21:33;;;;;;;;;;;;;;;24.05;41.07;100020.22;4436937;32;32396;-82
2023/05/06 08:24:02;;;;;;;;;;;;;;;24.15;41.79;100016.47;4436070;32;35041;-83
2023/05/06 08:26:35;;;;;;;;;;;;;;;23.86;42.58;100021.13;4411493;32;33083;-82
2023/05/06 08:29:06;;;;;;;;;;;;;;;24.21;41.29;100013.19;4435141;32;33370;-84
2023/05/06 08:31:39;;;;;;;;;;;;;;;25.02;41.43;100015.12;4422992;32;34816;-84
2023/05/06 08:34:09;;;;;;;;;;;;;;;24.83;41.14;100020.63;4435428;32;33614;-83
2023/05/06 08:39:18;;;;;;;;;;;;;;;24.95;40.37;100008.62;4436035;32;32507;-83
2023/05/06 08:41:50;;;;;;;;;;;;;;;25.00;40.28;100006.31;4437128;32;34167;-83
2023/05/06 08:44:22;;;;;;;;;;;;;;;24.87;39.85;100011.22;4421074;32;34241;-83
2023/05/06 08:46:55;;;;;;;;;;;;;;;25.32;38.58;100005.78;4435649;32;32678;-83
2023/05/06 08:49:32;;;;;;;;;;;;;;;25.40;39.09;99996.84;4411512;32;32162;-84
2023/05/06 08:52:05;;;;;;;;;;;;;;;25.73;38.27;100011.44;4434950;32;33415;-83
2023/05/06 08:54:34;;;;;;;;;;;;;;;25.69;38.04;99999.28;4435381;32;34440;-83
2023/05/06 08:57:07;;;;;;;;;;;;;;;25.59;37.85;100001.22;4424028;32;32688;-83
2023/05/06 08:59:40;;;;;;;;;;;;;;;25.49;37.83;100001.31;4437124;32;34281;-84
2023/05/06 09:02:15;;;;;;;;;;;;;;;25.67;38.50;100004.84;4423554;32;34974;-83
2023/05/06 09:04:43;;;;;;;;;;;;;;;25.33;39.17;100012.03;4435498;32;33935;-83
2023/05/06 09:07:13;;;;;;;;;;;;;;;25.78;37.82;100001.91;4422976;32;34163;-83
2023/05/06 09:09:41;;;;;;;;;;;;;;;25.95;37.86;99997.41;4436323;32;32889;-83
2023/05/06 09:12:17;;;;;;;;;;;;;;;25.97;38.08;99999.97;4424298;32;35007;-83
2023/05/06 09:14:48;;;;;;;;;;;;;;;25.96;37.07;99992.84;4423218;32;33736;-83
2023/05/06 09:17:22;;;;;;;;;;;;;;;25.97;37.67;99986.44;4424336;32;34174;-83
2023/05/06 09:19:53;;;;;;;;;;;;;;;25.49;38.74;99993.22;4411128;32;32939;-83
2023/05/06 09:22:21;;;;;;;;;;;;;;;26.01;38.48;99977.81;4435105;32;32497;-83
2023/05/06 09:24:57;;;;;;;;;;;;;;;26.24;37.62;99979.97;4424611;32;34082;-83
2023/05/06 09:27:27;;;;;;;;;;;;;;;26.49;35.92;99978.19;4436284;32;34007;-83
2023/05/06 09:30:04;;;;;;;;;;;;;;;26.26;36.60;99972.53;4423666;32;32469;-83
2023/05/06 09:32:38;;;;;;;;;;;;;;;26.45;35.94;99972.28;4435968;32;34901;-83
2023/05/06 09:35:11;;;;;;;;;;;;;;;26.57;37.91;99974.69;4436129;32;33828;-84
2023/05/06 09:37:43;;;;;;;;;;;;;;;26.75;36.45;99973.53;4435721;32;33869;-83
2023/05/06 09:40:13;;;;;;;;;;;;;;;25.94;35.45;99978.66;4410721;32;33412;-82
2023/05/06 09:42:50;;;;;;;;;;;;;;;26.24;34.72;99975.38;4423703;32;35707;-83
2023/05/06 09:45:23;;;;;;;;;;;;;;;27.03;34.35;99962.37;4435854;32;33719;-83
2023/05/06 09:50:35;;;;;;;;;;;;;;;25.73;36.26;99971.75;4446616;32;33958;-83
2023/05/06 09:53:04;;;;;;;;;;;;;;;25.64;36.69;99961.91;4423642;32;33727;-83
2023/05/06 09:55:33;;;;;;;;;;;;;;;26.03;36.58;99956.03;4436121;32;34875;-82
2023/05/06 09:58:03;;;;;;;;;;;;;;;25.87;36.00;99950.53;4435576;32;33596;-83
2023/05/06 10:00:31;;;;;;;;;;;;;;;26.45;34.57;99944.38;4423219;32;34005;-84
2023/05/06 10:03:00;;;;;;;;;;;;;;;26.42;33.79;99947.37;4435879;32;33967;-83
2023/05/06 10:05:35;;;;;;;;;;;;;;;26.34;33.22;99953.59;4435115;32;34230;-83
2023/05/06 10:08:03;;;;;;;;;;;;;;;26.35;31.29;99947.19;4435055;32;32728;-83
2023/05/06 10:10:32;;;;;;;;;;;;;;;27.03;32.49;99944.25;4434028;32;33040;-83
2023/05/06 10:13:01;;;;;;;;;;;;;;;27.25;33.75;99933.75;4422873;32;33805;-83
2023/05/06 10:15:30;;;;;;;;;;;;;;;26.41;33.58;99940.28;4434423;32;34023;-83
2023/05/06 10:18:03;;;;;;;;;;;;;;;26.80;32.45;99937.81;4424314;32;32824;-83
2023/05/06 10:20:37;;;;;;;;;;;;;;;26.46;31.66;99937.94;4410503;32;32372;-83
2023/05/06 10:23:26;;;;;;;;;;;;;;;26.43;32.64;99936.41;4436976;32;33513;-83
2023/05/06 10:25:57;;;;;;;;;;;;;;;25.99;33.48;99933.03;4437223;32;34367;-83
2023/05/06 10:28:32;;;;;;;;;;;;;;;26.41;32.29;99932.16;4446546;32;34007;-80
2023/05/06 10:33:41;;;;;;;;;;;;;;;26.35;33.72;99919.25;4437321;32;34157;-80
2023/05/06 10:36:24;;;;;;;;;;;;;;;26.37;31.90;99914.53;4414844;32;35863;-80
2023/05/06 10:38:56;;;;;;;;;;;;;;;25.83;33.29;99911.28;4438802;32;33906;-80
2023/05/06 10:41:29;;;;;;;;;;;;;;;26.33;32.40;99914.00;4437965;32;33664;-80
2023/05/06 10:43:59;;;;;;;;;;;;;;;26.44;32.74;99905.59;4425314;32;33773;-80
2023/05/06 10:46:29;;;;;;;;;;;;;;;26.26;33.17;99902.16;4413284;32;33131;-80
2023/05/06 10:49:04;;;;;;;;;;;;;;;26.16;33.38;99899.59;4424966;32;33019;-80
2023/05/06 10:51:35;;;;;;;;;;;;;;;26.40;33.17;99897.97;4436409;32;32294;-80
2023/05/06 10:54:14;;;;;;;;;;;;;;;26.08;33.80;99888.75;4412286;32;33254;-80
2023/05/06 10:56:45;;;;;;;;;;;;;;;26.19;33.60;99896.56;4436948;32;34740;-80
2023/05/06 10:59:13;;;;;;;;;;;;;;;26.45;32.34;99890.22;4438425;32;34445;-80
2023/05/06 11:01:41;;;;;;;;;;;;;;;26.42;33.20;99895.94;4424605;32;32474;-80
2023/05/06 11:04:21;;;;;;;;;;;;;;;26.30;33.39;99898.09;4438649;32;34348;-80
2023/05/06 11:06:52;;;;;;;;;;;;;;;26.62;32.72;99891.06;4436565;32;33118;-80
2023/05/06 11:09:26;;;;;;;;;;;;;;;26.94;31.69;99893.78;4437054;32;34482;-80
2023/05/06 11:12:04;;;;;;;;;;;;;;;26.85;32.15;99896.66;4412823;32;32994;-80
2023/05/06 11:14:34;;;;;;;;;;;;;;;27.02;31.35;99893.78;4411333;32;35396;-80
2023/05/06 11:17:04;;;;;;;;;;;;;;;27.51;31.73;99887.44;4424980;32;34680;-80
2023/05/06 11:19:35;;;;;;;;;;;;;;;27.82;30.61;99882.09;4438638;32;33696;-80
2023/05/06 11:22:09;;;;;;;;;;;;;;;28.06;28.98;99884.72;4425326;32;33036;-80
2023/05/06 11:24:42;;;;;;;;;;;;;;;27.25;31.94;99877.69;4436391;32;34749;-80
2023/05/06 11:27:19;;;;;;;;;;;;;;;27.42;31.59;99883.06;4437043;32;34320;-80
2023/05/06 11:30:00;;;;;;;;;;;;;;;27.24;31.41;99881.41;4436347;32;34559;-80
2023/05/06 11:32:29;;;;;;;;;;;;;;;27.38;31.34;99887.16;4437018;32;32960;-80
2023/05/06 11:35:00;;;;;;;;;;;;;;;27.28;30.17;99884.63;4436122;32;34177;-80
2023/05/06 11:37:30;;;;;;;;;;;;;;;27.41;30.88;99884.09;4423250;32;34689;-80
2023/05/06 11:39:58;;;;;;;;;;;;;;;27.71;29.88;99882.47;4423782;32;33970;-80
2023/05/06 11:42:27;;;;;;;;;;;;;;;27.46;30.31;99884.41;4425271;32;34103;-80
2023/05/06 11:45:01;;;;;;;;;;;;;;;27.47;29.90;99880.69;4436695;32;33533;-80
2023/05/06 11:47:30;;;;;;;;;;;;;;;27.59;30.91;99881.16;4437650;32;33574;-79
2023/05/06 11:50:06;;;;;;;;;;;;;;;27.04;30.70;99888.19;4424942;32;33822;-80
2023/05/06 11:52:35;;;;;;;;;;;;;;;27.02;31.04;99890.25;4425235;32;33161;-80
2023/05/06 11:55:09;;;;;;;;;;;;;;;26.46;31.87;99894.63;4423689;32;34197;-80
2023/05/06 11:57:43;;;;;;;;;;;;;;;26.94;31.86;99887.53;4424355;32;32435;-80
2023/05/06 12:00:17;;;;;;;;;;;;;;;27.04;31.98;99891.75;4424194;32;34022;-80
2023/05/06 12:02:48;;;;;;;;;;;;;;;26.86;31.74;99888.38;4437206;32;33251;-80
2023/05/06 12:05:16;;;;;;;;;;;;;;;26.00;32.95;99896.84;4424495;32;34305;-80
2023/05/06 12:07:43;;;;;;;;;;;;;;;25.83;33.42;99893.22;4424809;32;34289;-80
2023/05/06 12:10:12;;;;;;;;;;;;;;;26.53;32.86;99887.50;4423640;32;34749;-80
2023/05/06 12:12:42;;;;;;;;;;;;;;;26.54;33.04;99891.94;4412740;32;32551;-80
2023/05/06 12:15:13;;;;;;;;;;;;;;;26.06;34.14;99896.16;4411618;32;32931;-80
2023/05/06 12:17:42;;;;;;;;;;;;;;;26.54;34.34;99889.22;4423858;32;33409;-80
2023/05/06 12:20:12;;;;;;;;;;;;;;;26.69;33.51;99897.53;4436914;32;33849;-80
2023/05/06 12:22:44;;;;;;;;;;;;;;;26.59;32.81;99881.44;4424059;32;34050;-80
2023/05/06 12:25:22;;;;;;;;;;;;;;;26.29;32.97;99889.13;4435919;32;34262;-80
2023/05/06 12:27:50;;;;;;;;;;;;;;;26.51;34.16;99886.84;4437918;32;34480;-80
2023/05/06 12:30:28;;;;;;;;;;;;;;;26.20;33.19;99882.00;4436644;32;34859;-80
2023/05/06 12:33:03;;;;;;;;;;;;;;;26.20;33.34;99879.28;4436358;32;32589;-80
2023/05/06 12:38:18;;;;;;;;;;;;;;;26.59;33.73;99881.44;4424211;32;33275;-80
2023/05/06 12:40:54;;;;;;;;;;;;;;;26.64;33.88;99870.94;4434935;32;32801;-80
2023/05/06 12:43:29;;;;;;;;;;;;;;;26.74;33.21;99871.63;4434757;32;33782;-80
2023/05/06 12:46:08;;;;;;;;;;;;;;;26.83;33.44;99868.91;4436865;32;32937;-80
2023/05/06 12:48:37;;;;;;;;;;;;;;;26.69;32.89;99871.28;4410187;32;33001;-80
2023/05/06 12:51:16;;;;;;;;;;;;;;;26.58;32.42;99874.31;4424578;32;33882;-79
2023/05/06 12:53:54;;;;;;;;;;;;;;;26.54;33.07;99878.37;4424584;32;33395;-80
2023/05/06 12:56:25;;;;;;;;;;;;;;;26.70;32.62;99869.41;4411356;32;33082;-80
2023/05/06 12:58:57;;;;;;;;;;;;;;;26.41;32.49;99870.72;4437297;32;34809;-79
2023/05/06 13:01:26;;;;;;;;;;;;;;;26.45;32.32;99876.69;4435362;32;33996;-80
2023/05/06 13:03:58;;;;;;;;;;;;;;;26.62;33.46;99867.53;4436004;32;33751;-79
2023/05/06 13:06:32;;;;;;;;;;;;;;;26.47;32.92;99869.22;4436188;32;34876;-81
2023/05/06 13:09:04;;;;;;;;;;;;;;;26.64;33.92;99865.53;4412042;32;33835;-79
2023/05/06 13:11:38;;;;;;;;;;;;;;;26.66;33.76;99865.34;4423755;32;34350;-79
2023/05/06 13:14:07;;;;;;;;;;;;;;;26.69;32.12;99863.16;4422330;32;31728;-80
2023/05/06 13:16:37;;;;;;;;;;;;;;;26.67;32.17;99862.47;4435746;32;34221;-79